Time;durP1;ratioP1;P1;durP2;ratioP2;P2;SDS_P1;SDS_P2;PMS_P1;PMS_P2;Temp;Humidity;BMP_temperature;BMP_pressure;BME280_temperature;BME280_humidity;BME280_pressure;Samples;Min_cycle;Max_cycle;Signal;HPM_P1;HPM_P2
2022/03/06 00:01:06;;;;;;;26.67;18.95;;;;;;;2.94;62.94;102240.06;5032566;28;20048;-48
2022/03/06 00:03:34;;;;;;;27.33;20.08;;;;;;;2.91;62.57;102242.28;5034761;28;20503;-50
2022/03/06 00:06:01;;;;;;;28.40;20.70;;;;;;;2.86;62.68;102239.28;5035692;28;20065;-49
2022/03/06 00:08:29;;;;;;;28.42;20.60;;;;;;;2.76;63.35;102242.25;5025499;28;20041;-49
2022/03/06 00:10:57;;;;;;;28.63;20.50;;;;;;;2.74;63.56;102249.66;5031075;28;20508;-51
2022/03/06 00:13:25;;;;;;;30.27;20.70;;;;;;;2.72;63.29;102251.72;5035549;28;20053;-50
2022/03/06 00:15:53;;;;;;;30.58;19.73;;;;;;;2.69;63.81;102246.66;5034339;28;20052;-49
2022/03/06 00:18:20;;;;;;;28.42;18.92;;;;;;;2.63;63.94;102247.41;5034662;28;20033;-50
2022/03/06 00:20:48;;;;;;;29.92;21.50;;;;;;;2.68;63.47;102255.78;5033746;28;20488;-51
2022/03/06 00:23:16;;;;;;;28.13;19.70;;;;;;;2.61;63.46;102255.66;5035412;28;20038;-47
2022/03/06 00:25:43;;;;;;;25.20;18.17;;;;;;;2.55;63.93;102259.91;5035559;28;20049;-49
2022/03/06 00:28:11;;;;;;;29.52;19.95;;;;;;;2.56;64.24;102253.50;5025312;28;20042;-48
2022/03/06 00:30:41;;;;;;;28.35;18.85;;;;;;;2.61;63.42;102257.50;5001291;28;20084;-48
2022/03/06 00:33:09;;;;;;;26.35;18.45;;;;;;;2.44;64.17;102257.63;5015299;28;20432;-48
2022/03/06 00:35:37;;;;;;;27.85;19.85;;;;;;;2.45;64.38;102253.06;5015494;28;20046;-47
2022/03/06 00:38:05;;;;;;;28.40;19.50;;;;;;;2.38;64.51;102261.00;5014700;28;20046;-50
2022/03/06 00:40:32;;;;;;;29.98;19.88;;;;;;;2.45;64.68;102272.72;5016039;28;20481;-47
2022/03/06 00:43:00;;;;;;;26.90;18.25;;;;;;;2.41;64.44;102265.22;5033190;28;20060;-48
2022/03/06 00:45:27;;;;;;;26.30;17.90;;;;;;;2.44;64.57;102264.88;5035076;28;20500;-48
2022/03/06 00:47:55;;;;;;;28.42;20.23;;;;;;;2.44;64.78;102276.47;5024781;28;20551;-49
2022/03/06 00:50:23;;;;;;;28.00;20.27;;;;;;;2.42;64.79;102277.66;5015038;28;20052;-50
2022/03/06 00:52:52;;;;;;;28.20;19.63;;;;;;;2.50;64.97;102277.59;5016209;28;20129;-49
2022/03/06 00:55:20;;;;;;;30.05;19.85;;;;;;;2.50;64.78;102286.50;5015064;28;20069;-51
2022/03/06 00:57:48;;;;;;;27.10;19.48;;;;;;;2.45;65.18;102282.66;5015300;28;20502;-51
2022/03/06 01:00:16;;;;;;;30.05;22.33;;;;;;;2.44;64.99;102287.22;5029669;28;20041;-47
2022/03/06 01:02:43;;;;;;;27.88;20.67;;;;;;;2.32;65.41;102289.47;5034924;28;20072;-49
2022/03/06 01:05:11;;;;;;;27.30;20.05;;;;;;;2.37;65.68;102280.03;5028347;28;20038;-51
2022/03/06 01:07:39;;;;;;;28.42;19.17;;;;;;;2.33;65.83;102288.47;5020079;28;20377;-48
2022/03/06 01:10:08;;;;;;;28.50;20.27;;;;;;;2.31;65.94;102289.66;5013670;28;20052;-53
2022/03/06 01:12:36;;;;;;;27.13;18.95;;;;;;;2.40;65.46;102291.25;5014644;28;20077;-50
2022/03/06 01:15:03;;;;;;;23.83;17.33;;;;;;;2.42;65.76;102289.25;5014844;28;20471;-49
2022/03/06 01:17:31;;;;;;;27.45;18.88;;;;;;;2.37;65.89;102294.31;5040952;28;20128;-53
2022/03/06 01:19:59;;;;;;;23.73;17.42;;;;;;;2.20;66.52;102290.06;5029505;28;20042;-51
2022/03/06 01:22:26;;;;;;;24.85;17.65;;;;;;;2.13;66.77;102290.75;5014808;28;20046;-49
2022/03/06 01:24:54;;;;;;;26.38;19.13;;;;;;;2.14;67.15;102291.56;5014504;28;20088;-48
2022/03/06 01:27:22;;;;;;;25.85;18.75;;;;;;;2.13;67.45;102290.75;5023129;28;20057;-47
2022/03/06 01:29:50;;;;;;;25.25;19.20;;;;;;;2.23;66.87;102298.59;5032776;28;20460;-51
2022/03/06 01:32:17;;;;;;;29.50;19.88;;;;;;;2.29;66.37;102295.22;5034249;28;20421;-51
2022/03/06 01:34:45;;;;;;;25.67;18.90;;;;;;;2.21;66.59;102297.09;5033175;28;20146;-48
2022/03/06 01:37:13;;;;;;;29.83;19.40;;;;;;;2.09;66.83;102297.50;5025060;28;20129;-48
2022/03/06 01:39:41;;;;;;;27.25;19.10;;;;;;;2.07;67.01;102293.31;5013004;28;20042;-49
2022/03/06 01:42:08;;;;;;;24.92;17.90;;;;;;;2.00;67.11;102301.25;5015348;28;20048;-51
2022/03/06 01:44:36;;;;;;;23.73;17.30;;;;;;;2.03;67.26;102300.06;5014266;28;20056;-49
2022/03/06 01:47:05;;;;;;;24.20;17.77;;;;;;;2.09;66.91;102299.34;5018511;28;20540;-49
2022/03/06 01:49:32;;;;;;;24.38;17.95;;;;;;;2.07;67.17;102301.38;5033508;28;20052;-47
2022/03/06 01:52:00;;;;;;;24.73;16.90;;;;;;;2.02;67.09;102304.59;5033656;28;20048;-48
2022/03/06 01:54:28;;;;;;;25.00;17.65;;;;;;;2.10;67.09;102301.84;5033656;28;20051;-50
2022/03/06 01:56:55;;;;;;;23.83;17.42;;;;;;;2.16;66.61;102302.16;5016209;28;20042;-51
2022/03/06 01:59:26;;;;;;;22.92;16.08;;;;;;;2.05;67.41;102304.25;5033144;28;20065;-49
2022/03/06 02:01:54;;;;;;;23.10;17.17;;;;;;;2.07;67.12;102302.22;5033839;28;20510;-48
2022/03/06 02:04:22;;;;;;;25.52;16.45;;;;;;;2.03;67.40;102295.50;5033668;28;20060;-51
2022/03/06 02:06:50;;;;;;;22.08;15.35;;;;;;;1.87;68.02;102301.78;5033270;28;20045;-54
2022/03/06 02:09:18;;;;;;;24.33;16.08;;;;;;;1.83;68.62;102299.63;5030648;28;20029;-51
2022/03/06 02:12:18;;;;;;;24.58;18.23;;;;;;;1.91;68.42;102300.41;5033360;28;20131;-51
2022/03/06 02:14:33;;;;;;;23.00;15.48;;;;;;;1.89;68.29;102302.44;5032567;28;20563;-49
2022/03/06 02:17:01;;;;;;;23.05;16.33;;;;;;;1.95;68.82;102311.69;5013883;28;20085;-49
2022/03/06 02:19:28;;;;;;;24.98;16.77;;;;;;;1.89;68.47;102305.13;5024899;28;20041;-50
2022/03/06 02:21:56;;;;;;;22.40;15.80;;;;;;;1.77;69.15;102303.00;5014240;28;20053;-49
2022/03/06 02:24:24;;;;;;;25.33;17.60;;;;;;;1.65;69.65;102303.38;5013422;28;20038;-51
2022/03/06 02:26:51;;;;;;;24.25;16.80;;;;;;;1.59;70.22;102306.75;5013697;28;20433;-50
2022/03/06 02:29:19;;;;;;;23.77;17.10;;;;;;;1.61;69.72;102303.88;5018734;28;20051;-51
2022/03/06 02:31:47;;;;;;;22.92;16.67;;;;;;;1.56;70.21;102307.06;5030962;28;20116;-49
2022/03/06 02:34:14;;;;;;;23.88;16.67;;;;;;;1.56;70.25;102311.63;5017310;28;20046;-52
2022/03/06 02:36:42;;;;;;;23.27;16.30;;;;;;;1.59;70.29;102312.13;5013277;28;20073;-47
2022/03/06 02:39:10;;;;;;;19.80;14.90;;;;;;;1.62;70.22;102316.31;5014510;28;20038;-50
2022/03/06 02:41:38;;;;;;;23.13;16.25;;;;;;;1.57;70.19;102307.94;5014189;28;20580;-48
2022/03/06 02:44:05;;;;;;;23.73;16.50;;;;;;;1.52;70.56;102313.81;5013232;28;20038;-48
2022/03/06 02:46:33;;;;;;;23.38;16.85;;;;;;;1.46;70.39;102309.13;5013125;28;20054;-47
2022/03/06 02:49:01;;;;;;;21.40;16.63;;;;;;;1.39;70.85;102308.13;5013477;28;20066;-52
2022/03/06 02:51:29;;;;;;;21.02;15.52;;;;;;;1.34;71.23;102321.22;5021957;28;20042;-48
2022/03/06 02:53:57;;;;;;;22.27;15.98;;;;;;;1.37;71.43;102305.63;5013175;28;20080;-52
2022/03/06 02:56:24;;;;;;;20.02;14.93;;;;;;;1.42;70.98;102311.31;5013142;28;20060;-52
2022/03/06 02:58:52;;;;;;;26.40;17.00;;;;;;;1.25;71.21;102310.50;5013347;28;20050;-50
2022/03/06 03:01:20;;;;;;;25.85;16.63;;;;;;;1.31;71.34;102317.03;5014421;28;20508;-51
2022/03/06 03:03:49;;;;;;;19.88;14.43;;;;;;;1.24;71.81;102316.03;5012997;28;20469;-48
2022/03/06 03:06:17;;;;;;;21.95;15.25;;;;;;;1.24;71.85;102322.25;5011798;28;20126;-50
2022/03/06 03:08:46;;;;;;;19.88;14.85;;;;;;;1.30;71.64;102322.56;5013085;28;20093;-47
2022/03/06 03:11:14;;;;;;;22.13;15.90;;;;;;;1.33;71.30;102324.94;5016632;28;20033;-54
2022/03/06 03:13:42;;;;;;;20.77;15.38;;;;;;;1.26;72.01;102325.59;5048182;28;20076;-50
2022/03/06 03:16:09;;;;;;;22.83;16.35;;;;;;;1.21;72.14;102325.28;5032785;28;20124;-47
2022/03/06 03:18:37;;;;;;;19.20;14.27;;;;;;;1.31;71.74;102322.41;5032711;28;20072;-49
2022/03/06 03:21:05;;;;;;;21.30;14.95;;;;;;;1.30;71.94;102330.63;5032794;28;20121;-52
2022/03/06 03:23:32;;;;;;;24.23;15.20;;;;;;;1.24;72.15;102324.09;5029573;28;20463;-47
2022/03/06 03:26:00;;;;;;;21.83;15.38;;;;;;;1.15;72.32;102317.88;5032589;28;20072;-48
2022/03/06 03:28:28;;;;;;;20.70;14.82;;;;;;;1.11;72.36;102324.63;5031452;28;20120;-52
2022/03/06 03:30:55;;;;;;;19.70;14.73;;;;;;;1.18;72.24;102317.56;5022102;28;20124;-49
2022/03/06 03:33:23;;;;;;;22.33;16.42;;;;;;;1.12;72.41;102328.97;5032830;28;20420;-47
2022/03/06 03:35:51;;;;;;;20.30;15.52;;;;;;;1.05;72.55;102322.59;5032576;28;20124;-53
2022/03/06 03:38:18;;;;;;;20.13;14.45;;;;;;;1.02;72.17;102317.56;5030931;28;20056;-51
2022/03/06 03:40:47;;;;;;;20.50;15.27;;;;;;;0.93;72.96;102324.75;5031925;28;20045;-54
2022/03/06 03:43:14;;;;;;;20.67;14.02;;;;;;;0.96;73.14;102329.81;5014563;28;20046;-51
2022/03/06 03:45:42;;;;;;;20.02;14.45;;;;;;;1.04;72.54;102332.50;5016051;28;20042;-54
2022/03/06 03:48:10;;;;;;;18.05;13.88;;;;;;;0.95;72.21;102343.38;5017633;28;20042;-56
2022/03/06 03:50:37;;;;;;;21.77;14.90;;;;;;;0.92;72.95;102333.00;5017430;28;20129;-52
2022/03/06 03:53:05;;;;;;;20.80;14.88;;;;;;;0.98;72.70;102337.69;5016254;28;20056;-52
2022/03/06 03:55:33;;;;;;;22.20;14.07;;;;;;;1.01;72.99;102337.34;5015945;28;20152;-52
2022/03/06 03:58:00;;;;;;;19.33;14.40;;;;;;;1.04;72.39;102334.34;5016334;28;20041;-52
2022/03/06 04:00:29;;;;;;;20.83;15.05;;;;;;;0.95;72.53;102324.59;5035848;28;20064;-50
2022/03/06 04:02:57;;;;;;;21.33;14.50;;;;;;;0.83;72.75;102337.50;5018040;28;20061;-49
2022/03/06 04:05:25;;;;;;;17.98;13.02;;;;;;;0.83;72.90;102340.19;5016195;28;20068;-50
2022/03/06 04:07:53;;;;;;;17.95;13.00;;;;;;;0.83;72.76;102341.03;5015719;28;20124;-50
2022/03/06 04:10:21;;;;;;;21.25;14.32;;;;;;;0.83;73.10;102346.38;5010238;28;20052;-48
2022/03/06 04:12:49;;;;;;;18.55;14.50;;;;;;;0.83;72.99;102351.75;5015807;28;20042;-48
2022/03/06 04:15:16;;;;;;;21.05;14.88;;;;;;;0.81;72.84;102350.25;5015819;28;20052;-51
2022/03/06 04:17:44;;;;;;;18.50;13.57;;;;;;;0.82;73.33;102357.31;5015697;28;20042;-48
2022/03/06 04:20:12;;;;;;;19.40;13.60;;;;;;;0.81;72.65;102359.13;5025193;28;20125;-51
2022/03/06 04:22:39;;;;;;;15.57;12.43;;;;;;;0.85;72.57;102355.13;5035463;28;20041;-54
2022/03/06 04:25:07;;;;;;;18.98;13.35;;;;;;;0.75;73.37;102361.66;5035416;28;20037;-51
2022/03/06 04:27:35;;;;;;;18.88;13.15;;;;;;;0.81;72.99;102364.50;5033667;28;20052;-52
2022/03/06 04:30:04;;;;;;;16.42;12.27;;;;;;;0.73;72.68;102358.28;5031023;28;20420;-48
2022/03/06 04:32:32;;;;;;;18.83;13.80;;;;;;;0.61;73.63;102361.28;5014405;28;20600;-52
2022/03/06 04:35:00;;;;;;;19.40;14.05;;;;;;;0.52;74.61;102359.56;5015600;28;20052;-54
2022/03/06 04:37:27;;;;;;;19.90;13.45;;;;;;;0.48;74.26;102370.78;5014208;28;20038;-46
2022/03/06 04:39:55;;;;;;;18.15;13.77;;;;;;;0.47;74.63;102371.81;5016072;28;20117;-49
2022/03/06 04:42:23;;;;;;;18.13;13.52;;;;;;;0.45;74.86;102373.81;5033529;28;20049;-48
2022/03/06 04:44:50;;;;;;;19.83;12.93;;;;;;;0.34;75.24;102372.28;5034932;28;20120;-50
2022/03/06 04:47:18;;;;;;;18.10;13.63;;;;;;;0.44;74.71;102382.88;5035082;28;20045;-50
2022/03/06 04:49:46;;;;;;;17.52;13.15;;;;;;;0.49;74.14;102388.56;5035085;28;20121;-52
2022/03/06 04:52:14;;;;;;;17.70;12.25;;;;;;;0.49;74.32;102383.22;5031303;28;20530;-50
2022/03/06 04:54:41;;;;;;;16.92;12.63;;;;;;;0.48;74.38;102392.25;5016863;28;20049;-49
2022/03/06 04:57:09;;;;;;;17.52;12.45;;;;;;;0.46;74.58;102392.41;5034719;28;20053;-48
2022/03/06 04:59:36;;;;;;;16.42;12.05;;;;;;;0.55;73.75;102399.47;5027599;28;20038;-51
2022/03/06 05:02:04;;;;;;;16.50;11.73;;;;;;;0.60;74.05;102398.97;5014906;28;20076;-49
2022/03/06 05:04:32;;;;;;;17.10;12.18;;;;;;;0.57;73.85;102400.16;5016446;28;20500;-48
2022/03/06 05:07:00;;;;;;;18.35;12.82;;;;;;;0.57;73.18;102404.69;5034320;28;20107;-54
2022/03/06 05:09:28;;;;;;;16.77;12.20;;;;;;;0.59;73.18;102408.88;5033286;28;20048;-51
2022/03/06 05:11:55;;;;;;;16.48;11.80;;;;;;;0.47;73.71;102417.38;5019766;28;20041;-49
2022/03/06 05:14:23;;;;;;;15.32;11.45;;;;;;;0.55;73.60;102414.72;5014952;28;20048;-54
2022/03/06 05:16:50;;;;;;;14.75;11.05;;;;;;;0.68;72.94;102412.44;5014496;28;20088;-53
2022/03/06 05:19:18;;;;;;;15.88;11.82;;;;;;;0.63;72.76;102415.59;5015613;28;20044;-51
2022/03/06 05:21:46;;;;;;;19.23;13.88;;;;;;;0.64;72.88;102419.13;5014337;28;20108;-52
2022/03/06 05:24:13;;;;;;;16.52;12.15;;;;;;;0.63;72.87;102412.09;5014116;28;20145;-51
2022/03/06 05:26:41;;;;;;;15.90;11.68;;;;;;;0.55;73.34;102415.56;5015141;28;20077;-55
2022/03/06 05:29:09;;;;;;;16.05;11.52;;;;;;;0.40;73.76;102425.22;5016173;28;20050;-48
2022/03/06 05:31:36;;;;;;;17.70;12.60;;;;;;;0.42;73.93;102429.44;5027495;28;20049;-51
2022/03/06 05:34:04;;;;;;;18.25;12.35;;;;;;;0.35;74.02;102425.72;5034153;28;20038;-52
2022/03/06 05:36:32;;;;;;;16.63;12.15;;;;;;;0.20;73.98;102421.97;5034167;28;20042;-52
2022/03/06 05:39:00;;;;;;;15.32;11.10;;;;;;;0.14;74.97;102428.78;5014279;28;20504;-52
2022/03/06 05:41:28;;;;;;;17.55;12.02;;;;;;;0.22;74.67;102428.00;5014527;28;20046;-53
2022/03/06 05:43:55;;;;;;;17.75;12.18;;;;;;;0.10;74.65;102430.13;5015165;28;20187;-53
2022/03/06 05:46:23;;;;;;;18.75;11.93;;;;;;;0.11;74.93;102436.31;5014063;28;20100;-53
2022/03/06 05:48:51;;;;;;;16.48;11.88;;;;;;;0.10;74.72;102432.81;5012768;28;20053;-54
2022/03/06 05:51:18;;;;;;;19.00;12.90;;;;;;;0.11;74.77;102444.34;5026859;28;20383;-48
2022/03/06 05:53:46;;;;;;;15.13;11.70;;;;;;;0.13;74.10;102431.63;5033664;28;20525;-51
2022/03/06 05:56:14;;;;;;;14.02;10.48;;;;;;;0.09;74.72;102430.28;5030029;28;20057;-49
2022/03/06 05:58:42;;;;;;;21.60;12.55;;;;;;;0.24;74.62;102435.88;5033760;28;20453;-54
2022/03/06 06:01:10;;;;;;;15.27;11.73;;;;;;;0.31;74.42;102437.75;5015082;28;20136;-49
2022/03/06 06:03:38;;;;;;;15.70;11.20;;;;;;;0.36;73.53;102440.81;5033444;28;20100;-51
2022/03/06 06:06:05;;;;;;;15.68;12.23;;;;;;;0.38;73.81;102443.31;5032798;28;20041;-54
2022/03/06 06:08:33;;;;;;;14.95;10.55;;;;;;;0.31;74.09;102453.81;5026501;28;20042;-51
2022/03/06 06:11:01;;;;;;;15.88;11.35;;;;;;;0.36;74.08;102456.91;5013635;28;20046;-51
2022/03/06 06:13:29;;;;;;;16.05;12.57;;;;;;;0.33;73.23;102457.19;5013564;28;20069;-52
2022/03/06 06:15:57;;;;;;;14.90;11.20;;;;;;;0.15;74.16;102453.78;5022229;28;20057;-52
2022/03/06 06:18:27;;;;;;;15.45;10.90;;;;;;;0.22;73.61;102460.19;5033381;28;20496;-51
2022/03/06 06:20:55;;;;;;;16.67;12.35;;;;;;;0.21;73.75;102459.31;5026620;28;20128;-50
2022/03/06 06:23:23;;;;;;;15.93;11.45;;;;;;;0.20;74.01;102464.84;5013326;28;20121;-53
2022/03/06 06:25:50;;;;;;;14.75;11.48;;;;;;;0.18;73.63;102477.56;5012231;28;20039;-52
2022/03/06 06:28:18;;;;;;;17.75;12.18;;;;;;;0.26;73.98;102476.75;5013246;28;20042;-52
2022/03/06 06:30:45;;;;;;;17.08;12.10;;;;;;;0.34;73.65;102469.63;5026002;28;20037;-52
2022/03/06 06:33:13;;;;;;;15.93;11.50;;;;;;;0.36;72.92;102477.47;5030112;28;20137;-55
2022/03/06 06:35:41;;;;;;;13.43;10.60;;;;;;;0.36;73.34;102473.00;5032664;28;20045;-52
2022/03/06 06:38:09;;;;;;;16.92;11.48;;;;;;;0.47;72.83;102479.06;5032765;28;20129;-53
2022/03/06 06:40:36;;;;;;;15.10;11.60;;;;;;;0.39;73.04;102480.69;5031786;28;20080;-53
2022/03/06 06:43:04;;;;;;;14.65;11.57;;;;;;;0.21;73.93;102496.00;5032944;28;20044;-51
2022/03/06 06:45:32;;;;;;;15.98;12.00;;;;;;;0.10;74.10;102494.44;5031168;28;20566;-51
2022/03/06 06:48:01;;;;;;;16.83;12.57;;;;;;;0.19;74.04;102492.63;5032941;28;20041;-49
2022/03/06 06:50:29;;;;;;;16.95;11.80;;;;;;;0.23;73.70;102493.19;5027329;28;20489;-51
2022/03/06 06:52:57;;;;;;;15.95;12.35;;;;;;;0.31;73.48;102499.41;5018595;28;20053;-51
2022/03/06 06:55:27;;;;;;;18.00;11.70;;;;;;;0.22;73.55;102503.06;5031491;28;20411;-50
2022/03/06 06:57:54;;;;;;;16.17;11.73;;;;;;;0.10;74.51;102510.53;5032223;28;20080;-51
2022/03/06 07:00:22;;;;;;;15.48;11.57;;;;;;;0.11;74.73;102508.66;5032605;28;20053;-51
2022/03/06 07:02:50;;;;;;;14.45;10.80;;;;;;;0.23;73.78;102514.63;5031283;28;20118;-53
2022/03/06 07:05:17;;;;;;;15.98;11.50;;;;;;;0.17;74.37;102508.91;5032601;28;20041;-52
2022/03/06 07:07:45;;;;;;;14.75;11.23;;;;;;;0.11;74.53;102519.41;5031049;28;20041;-50
2022/03/06 07:10:13;;;;;;;17.70;12.55;;;;;;;0.09;75.33;102513.34;5032630;28;20045;-49
2022/03/06 07:12:45;;;;;;;15.55;11.98;;;;;;;0.13;75.19;102514.72;5018917;28;20073;-50
2022/03/06 07:15:15;;;;;;;15.18;11.48;;;;;;;0.16;74.80;102515.22;5013021;28;20128;-48
2022/03/06 07:17:43;;;;;;;14.80;12.07;;;;;;;0.26;74.12;102509.75;5014992;28;20108;-51
2022/03/06 07:20:11;;;;;;;16.58;11.95;;;;;;;0.23;74.66;102515.44;5029171;28;20041;-49
2022/03/06 07:22:39;;;;;;;17.65;11.88;;;;;;;0.20;74.81;102521.97;5029091;28;20165;-53
2022/03/06 07:25:07;;;;;;;15.98;11.48;;;;;;;0.18;74.58;102525.81;5031509;28;20133;-51
2022/03/06 07:27:35;;;;;;;15.02;11.48;;;;;;;0.27;75.01;102530.22;5028118;28;20045;-50
2022/03/06 07:30:03;;;;;;;15.77;11.82;;;;;;;0.25;74.39;102534.91;5016505;28;20492;-51
2022/03/06 07:32:30;;;;;;;14.38;11.13;;;;;;;0.25;75.16;102539.44;5017719;28;20046;-53
2022/03/06 07:34:58;;;;;;;15.10;12.05;;;;;;;0.35;75.48;102548.19;5016190;28;20053;-47
2022/03/06 07:37:26;;;;;;;15.40;11.85;;;;;;;0.42;74.67;102546.56;5016169;28;20048;-48
2022/03/06 07:39:53;;;;;;;15.25;11.25;;;;;;;0.48;74.35;102550.44;5016632;28;20041;-47
2022/03/06 07:42:21;;;;;;;15.90;11.63;;;;;;;0.49;75.17;102560.19;5016678;28;20136;-48
2022/03/06 07:44:50;;;;;;;13.38;9.60;;;;;;;0.41;74.69;102559.16;5016285;28;20046;-46
2022/03/06 07:47:18;;;;;;;12.00;8.43;;;;;;;0.50;75.13;102559.19;5016563;28;20412;-48
2022/03/06 07:49:45;;;;;;;16.13;11.48;;;;;;;0.52;74.69;102563.38;5016405;28;20041;-48
2022/03/06 07:52:13;;;;;;;16.08;11.13;;;;;;;0.48;75.18;102561.19;5028634;28;20029;-45
2022/03/06 07:54:40;;;;;;;14.57;9.98;;;;;;;0.59;76.34;102568.97;5034441;28;20128;-43
2022/03/06 07:57:08;;;;;;;13.38;10.07;;;;;;;0.55;75.21;102557.69;5034497;28;20492;-46
2022/03/06 07:59:36;;;;;;;14.07;10.40;;;;;;;0.62;75.57;102574.00;5035830;28;20046;-53
2022/03/06 08:02:04;;;;;;;14.48;11.00;;;;;;;0.68;75.21;102575.22;5036020;28;20488;-52
2022/03/06 08:04:32;;;;;;;13.43;9.55;;;;;;;0.76;74.90;102576.09;5035876;28;20045;-50
2022/03/06 08:07:00;;;;;;;14.18;10.02;;;;;;;0.78;74.90;102573.25;5034624;28;20052;-52
2022/03/06 08:09:28;;;;;;;17.88;11.10;;;;;;;0.87;75.00;102572.31;5019120;28;20045;-48
2022/03/06 08:11:55;;;;;;;20.65;11.18;;;;;;;0.76;75.42;102573.41;5015859;28;20038;-46
2022/03/06 08:14:23;;;;;;;15.85;11.10;;;;;;;0.67;75.17;102582.41;5016122;28;20136;-52
2022/03/06 08:16:50;;;;;;;17.55;11.82;;;;;;;0.72;76.16;102580.13;5015506;28;20050;-45
2022/03/06 08:19:18;;;;;;;16.65;11.75;;;;;;;0.78;75.23;102584.00;5025211;28;20040;-49
2022/03/06 08:21:48;;;;;;;17.77;12.20;;;;;;;0.74;75.78;102586.13;5016923;28;20603;-49
2022/03/06 08:24:21;;;;;;;16.55;11.77;;;;;;;0.84;75.49;102589.56;5015656;28;20066;-47
2022/03/06 08:26:49;;;;;;;19.10;11.80;;;;;;;0.83;75.03;102587.88;5015517;28;20071;-49
2022/03/06 08:29:16;;;;;;;20.35;11.98;;;;;;;0.92;75.49;102580.72;5014725;28;20129;-50
2022/03/06 08:31:44;;;;;;;16.02;11.25;;;;;;;1.01;74.80;102593.16;5016619;28;20037;-49
2022/03/06 08:34:12;;;;;;;15.10;11.43;;;;;;;1.09;74.19;102589.69;5014311;28;20056;-47
2022/03/06 08:36:39;;;;;;;16.83;11.93;;;;;;;1.04;75.06;102600.06;5015754;28;20048;-49
2022/03/06 08:39:07;;;;;;;15.57;11.98;;;;;;;1.00;75.16;102609.44;5015313;28;20042;-46
2022/03/06 08:41:35;;;;;;;18.30;11.68;;;;;;;1.01;76.40;102598.53;5014119;28;20042;-47
2022/03/06 08:44:03;;;;;;;16.05;11.48;;;;;;;1.04;75.63;102600.06;5015761;28;20042;-48
2022/03/06 08:46:33;;;;;;;18.17;11.38;;;;;;;1.10;74.77;102591.34;5033908;28;20407;-49
2022/03/06 08:49:00;;;;;;;15.70;11.55;;;;;;;1.11;74.86;102603.78;5035240;28;20404;-50
2022/03/06 08:51:28;;;;;;;14.68;11.57;;;;;;;1.17;75.64;102595.06;5035263;28;20115;-51
2022/03/06 08:53:56;;;;;;;15.98;11.52;;;;;;;1.26;74.80;102596.78;5035132;28;20037;-50
2022/03/06 08:56:23;;;;;;;15.70;11.85;;;;;;;1.21;74.85;102601.81;5034839;28;20063;-48
2022/03/06 08:58:51;;;;;;;15.65;11.85;;;;;;;1.14;76.17;102608.00;5033114;28;20061;-48
2022/03/06 09:01:18;;;;;;;15.05;10.73;;;;;;;1.20;75.85;102602.81;5034980;28;20121;-47
2022/03/06 09:03:47;;;;;;;14.80;11.43;;;;;;;1.26;75.42;102604.84;5034778;28;20526;-47
2022/03/06 09:06:14;;;;;;;15.15;11.35;;;;;;;1.34;75.65;102613.94;5033715;28;20038;-49
2022/03/06 09:08:42;;;;;;;15.40;11.10;;;;;;;1.36;75.50;102609.25;5035108;28;20057;-46
2022/03/06 09:11:10;;;;;;;18.05;11.07;;;;;;;1.37;75.55;102608.22;5033456;28;20124;-45
2022/03/06 09:13:37;;;;;;;14.82;10.70;;;;;;;1.42;74.66;102612.13;5033777;28;20041;-48
2022/03/06 09:16:05;;;;;;;16.05;11.48;;;;;;;1.44;74.29;102609.25;5034483;28;20136;-45
2022/03/06 09:18:33;;;;;;;15.88;10.38;;;;;;;1.45;74.38;102605.59;5033599;28;20048;-48
2022/03/06 09:21:01;;;;;;;16.25;10.02;;;;;;;1.51;75.11;102607.59;5034359;28;20539;-48
2022/03/06 09:23:29;;;;;;;14.60;10.52;;;;;;;1.59;74.68;102610.31;5032560;28;20052;-48
2022/03/06 09:25:56;;;;;;;14.55;10.25;;;;;;;1.57;74.53;102598.91;5034101;28;20488;-47
2022/03/06 09:28:24;;;;;;;17.17;10.75;;;;;;;1.66;74.50;102605.97;5034244;28;20138;-47
2022/03/06 09:30:52;;;;;;;16.75;11.00;;;;;;;1.77;74.20;102612.88;5034250;28;20045;-46
2022/03/06 09:33:19;;;;;;;16.58;10.70;;;;;;;1.81;74.05;102613.38;5033066;28;20065;-49
2022/03/06 09:35:47;;;;;;;16.58;9.82;;;;;;;1.88;73.86;102609.03;5032367;28;20136;-42
2022/03/06 09:38:15;;;;;;;15.70;11.18;;;;;;;1.95;73.24;102612.72;5033749;28;20077;-41
2022/03/06 09:40:43;;;;;;;17.70;10.48;;;;;;;1.96;73.17;102611.72;5034075;28;20049;-45
2022/03/06 09:43:17;;;;;;;15.00;10.23;;;;;;;2.04;73.26;102603.63;5028731;28;20133;-47
2022/03/06 09:45:46;;;;;;;14.48;9.80;;;;;;;2.07;72.67;102619.47;4996800;28;20136;-49
2022/03/06 09:48:17;;;;;;;14.75;9.90;;;;;;;2.07;72.79;102608.72;5019377;28;20042;-48
2022/03/06 09:50:45;;;;;;;14.70;10.05;;;;;;;2.15;72.54;102617.78;5033735;28;20104;-48
2022/03/06 09:53:13;;;;;;;14.95;10.20;;;;;;;2.17;72.74;102616.59;5032602;28;20044;-44
2022/03/06 09:55:41;;;;;;;14.70;9.40;;;;;;;2.22;72.54;102608.88;5033598;28;20493;-47
2022/03/06 09:58:08;;;;;;;12.30;8.50;;;;;;;2.26;72.23;102604.84;5034282;28;20467;-45
2022/03/06 10:00:36;;;;;;;15.38;10.30;;;;;;;2.35;72.23;102611.03;5031811;28;20048;-45
2022/03/06 10:03:04;;;;;;;14.55;9.23;;;;;;;2.37;71.96;102611.72;5033598;28;20064;-47
2022/03/06 10:05:39;;;;;;;15.23;9.50;;;;;;;2.37;72.17;102609.03;5033439;28;20045;-46
2022/03/06 10:08:24;;;;;;;13.57;8.13;;;;;;;2.43;71.93;102602.97;5033623;28;20132;-43
2022/03/06 10:11:01;;;;;;;12.73;8.32;;;;;;;2.53;71.88;102608.19;5032687;28;20060;-46
2022/03/06 10:13:30;;;;;;;13.63;8.35;;;;;;;2.58;70.92;102602.28;5031965;28;20124;-45
2022/03/06 10:16:13;;;;;;;14.02;9.77;;;;;;;2.65;71.08;102605.97;5033314;28;20087;-47
2022/03/06 10:18:55;;;;;;;17.52;9.60;;;;;;;2.73;69.96;102608.63;5033555;28;20042;-43
2022/03/06 10:21:28;;;;;;;12.73;8.75;;;;;;;2.72;69.86;102607.81;5017262;28;20129;-43
2022/03/06 10:23:59;;;;;;;13.77;9.07;;;;;;;2.80;70.49;102604.25;5013688;28;20072;-44
2022/03/06 10:26:29;;;;;;;15.07;9.80;;;;;;;2.87;69.58;102604.41;5013608;28;20117;-41
2022/03/06 10:29:02;;;;;;;14.50;9.75;;;;;;;2.86;69.84;102611.66;5012254;28;20136;-42
2022/03/06 10:31:34;;;;;;;12.20;8.73;;;;;;;2.89;69.57;102602.38;5013532;28;20084;-42
2022/03/06 10:34:06;;;;;;;14.15;9.30;;;;;;;2.95;69.81;102617.81;5012474;28;20053;-45
2022/03/06 10:36:45;;;;;;;14.00;8.70;;;;;;;3.01;67.50;102621.66;5013430;28;20419;-47
2022/03/06 10:39:23;;;;;;;12.10;8.35;;;;;;;3.04;67.11;102607.88;5013201;28;20088;-43
2022/03/06 10:41:53;;;;;;;12.60;8.77;;;;;;;3.09;67.87;102619.81;5013623;28;20048;-44
2022/03/06 10:44:41;;;;;;;14.50;8.20;;;;;;;3.15;66.47;102615.56;4995889;28;20526;-43
2022/03/06 10:47:08;;;;;;;12.85;8.60;;;;;;;3.13;65.99;102621.13;5013299;28;20042;-45
2022/03/06 10:49:36;;;;;;;13.85;8.50;;;;;;;3.13;66.70;102609.53;5013128;28;20056;-44
2022/03/06 10:52:19;;;;;;;14.57;7.68;;;;;;;3.17;66.31;102606.28;5021217;28;20488;-43
2022/03/06 10:55:00;;;;;;;15.32;8.93;;;;;;;3.24;65.57;102601.03;5018893;28;20076;-46
2022/03/06 10:57:28;;;;;;;12.55;8.25;;;;;;;3.29;65.56;102609.44;5019107;28;20056;-44
2022/03/06 10:59:57;;;;;;;12.07;7.80;;;;;;;3.33;65.83;102600.00;5019675;28;20045;-47
2022/03/06 11:02:26;;;;;;;12.07;7.90;;;;;;;3.37;65.41;102595.94;5019730;28;20515;-44
2022/03/06 11:04:57;;;;;;;14.15;8.85;;;;;;;3.45;63.30;102596.91;5018495;28;20045;-42
2022/03/06 11:07:28;;;;;;;14.63;8.82;;;;;;;3.49;62.65;102598.22;5019672;28;20046;-45
2022/03/06 11:09:57;;;;;;;13.07;8.38;;;;;;;3.56;62.56;102604.59;5034562;28;20096;-45
2022/03/06 11:12:25;;;;;;;12.77;8.02;;;;;;;3.65;61.72;102603.53;5019568;28;20042;-45
2022/03/06 11:14:53;;;;;;;13.77;8.88;;;;;;;3.69;61.04;102609.41;5001973;28;20046;-46
2022/03/06 11:17:21;;;;;;;11.90;8.13;;;;;;;3.69;61.30;102596.78;5019667;28;20056;-45
2022/03/06 11:19:49;;;;;;;11.85;8.98;;;;;;;3.78;60.13;102603.78;5018303;28;20125;-46
2022/03/06 11:22:24;;;;;;;12.45;9.38;;;;;;;3.77;59.98;102604.78;5019566;28;20048;-45
2022/03/06 11:24:57;;;;;;;12.17;8.60;;;;;;;3.91;58.54;102602.34;5018591;28;20416;-47